sensor_id;sensor_type;location;lat;lon;timestamp;temperature;humidity
21419;DHT22;10870;51.384;10.316;2022-07-29T00:01:14;18.60;99.90
21419;DHT22;10870;51.384;10.316;2022-07-29T00:03:31;18.60;99.90
21419;DHT22;10870;51.384;10.316;2022-07-29T00:05:40;18.50;1.00
21419;DHT22;10870;51.384;10.316;2022-07-29T00:08:07;18.50;1.00
21419;DHT22;10870;51.384;10.316;2022-07-29T00:12:51;18.50;1.00
21419;DHT22;10870;51.384;10.316;2022-07-29T00:14:56;18.50;1.00
21419;DHT22;10870;51.384;10.316;2022-07-29T00:16:59;18.50;1.00
21419;DHT22;10870;51.384;10.316;2022-07-29T00:19:19;18.50;1.00
21419;DHT22;10870;51.384;10.316;2022-07-29T00:22:00;18.40;1.00
21419;DHT22;10870;51.384;10.316;2022-07-29T00:26:42;18.30;1.00
21419;DHT22;10870;51.384;10.316;2022-07-29T00:28:49;18.30;10.20
21419;DHT22;10870;51.384;10.316;2022-07-29T00:30:51;18.30;99.90
21419;DHT22;10870;51.384;10.316;2022-07-29T00:33:03;18.10;99.90
21419;DHT22;10870;51.384;10.316;2022-07-29T00:35:11;18.20;99.90
21419;DHT22;10870;51.384;10.316;2022-07-29T00:37:39;18.20;99.90
21419;DHT22;10870;51.384;10.316;2022-07-29T00:39:59;18.10;99.90
21419;DHT22;10870;51.384;10.316;2022-07-29T00:42:13;18.00;99.90
21419;DHT22;10870;51.384;10.316;2022-07-29T00:46:59;18.00;99.90
21419;DHT22;10870;51.384;10.316;2022-07-29T00:49:09;18.00;99.90
21419;DHT22;10870;51.384;10.316;2022-07-29T00:51:18;17.90;99.90
21419;DHT22;10870;51.384;10.316;2022-07-29T00:53:48;17.90;99.90
21419;DHT22;10870;51.384;10.316;2022-07-29T00:55:58;17.90;1.00
21419;DHT22;10870;51.384;10.316;2022-07-29T00:58:29;17.90;1.00
21419;DHT22;10870;51.384;10.316;2022-07-29T01:00:43;17.80;1.00
21419;DHT22;10870;51.384;10.316;2022-07-29T01:02:47;17.80;1.00
21419;DHT22;10870;51.384;10.316;2022-07-29T01:04:52;17.80;1.00
21419;DHT22;10870;51.384;10.316;2022-07-29T01:07:00;17.80;1.00
21419;DHT22;10870;51.384;10.316;2022-07-29T01:09:15;17.80;1.00
21419;DHT22;10870;51.384;10.316;2022-07-29T01:11:25;17.80;1.00
21419;DHT22;10870;51.384;10.316;2022-07-29T01:13:31;17.80;1.00
21419;DHT22;10870;51.384;10.316;2022-07-29T01:23:07;17.70;1.00
21419;DHT22;10870;51.384;10.316;2022-07-29T01:30:04;17.70;1.00
21419;DHT22;10870;51.384;10.316;2022-07-29T01:32:12;17.70;1.00
21419;DHT22;10870;51.384;10.316;2022-07-29T01:37:29;17.70;1.00
21419;DHT22;10870;51.384;10.316;2022-07-29T01:39:51;17.70;1.00
21419;DHT22;10870;51.384;10.316;2022-07-29T01:42:19;17.40;1.00
21419;DHT22;10870;51.384;10.316;2022-07-29T01:44:22;17.60;60.00
21419;DHT22;10870;51.384;10.316;2022-07-29T01:46:35;17.60;99.90
21419;DHT22;10870;51.384;10.316;2022-07-29T01:51:27;17.60;99.90
21419;DHT22;10870;51.384;10.316;2022-07-29T01:53:50;17.60;99.90
21419;DHT22;10870;51.384;10.316;2022-07-29T01:56:01;17.60;99.90
21419;DHT22;10870;51.384;10.316;2022-07-29T01:58:07;17.50;99.90
21419;DHT22;10870;51.384;10.316;2022-07-29T02:00:16;17.60;99.90
21419;DHT22;10870;51.384;10.316;2022-07-29T02:02:43;17.50;99.90
21419;DHT22;10870;51.384;10.316;2022-07-29T02:04:56;17.40;99.90
21419;DHT22;10870;51.384;10.316;2022-07-29T02:07:20;17.70;61.90
21419;DHT22;10870;51.384;10.316;2022-07-29T02:09:33;17.60;69.10
21419;DHT22;10870;51.384;10.316;2022-07-29T02:11:43;17.70;47.90
21419;DHT22;10870;51.384;10.316;2022-07-29T02:14:00;17.60;99.90
21419;DHT22;10870;51.384;10.316;2022-07-29T02:16:05;17.60;99.90
21419;DHT22;10870;51.384;10.316;2022-07-29T02:18:29;17.60;99.90
21419;DHT22;10870;51.384;10.316;2022-07-29T02:20:39;17.60;1.00
21419;DHT22;10870;51.384;10.316;2022-07-29T02:22:43;17.60;19.40
21419;DHT22;10870;51.384;10.316;2022-07-29T02:24:50;17.60;1.00
21419;DHT22;10870;51.384;10.316;2022-07-29T02:26:52;17.60;1.00
21419;DHT22;10870;51.384;10.316;2022-07-29T02:29:08;17.50;1.00
21419;DHT22;10870;51.384;10.316;2022-07-29T02:31:15;17.70;49.60
21419;DHT22;10870;51.384;10.316;2022-07-29T02:33:22;17.50;75.20
21419;DHT22;10870;51.384;10.316;2022-07-29T02:35:30;17.50;57.60
21419;DHT22;10870;51.384;10.316;2022-07-29T02:37:31;17.50;54.00
21419;DHT22;10870;51.384;10.316;2022-07-29T02:39:36;17.50;99.90
21419;DHT22;10870;51.384;10.316;2022-07-29T02:41:49;17.50;99.90
21419;DHT22;10870;51.384;10.316;2022-07-29T02:44:18;17.50;99.90
21419;DHT22;10870;51.384;10.316;2022-07-29T02:46:29;17.50;99.90
21419;DHT22;10870;51.384;10.316;2022-07-29T02:48:33;17.50;99.90
21419;DHT22;10870;51.384;10.316;2022-07-29T02:50:45;17.50;99.90
21419;DHT22;10870;51.384;10.316;2022-07-29T02:52:59;17.50;47.30
21419;DHT22;10870;51.384;10.316;2022-07-29T02:55:23;17.80;99.90
21419;DHT22;10870;51.384;10.316;2022-07-29T02:57:36;17.50;99.90
21419;DHT22;10870;51.384;10.316;2022-07-29T02:59:44;17.50;99.90
21419;DHT22;10870;51.384;10.316;2022-07-29T03:01:57;17.50;99.90
21419;DHT22;10870;51.384;10.316;2022-07-29T03:04:10;17.50;99.90
21419;DHT22;10870;51.384;10.316;2022-07-29T03:06:24;17.30;99.90
21419;DHT22;10870;51.384;10.316;2022-07-29T03:13:22;17.50;99.90
21419;DHT22;10870;51.384;10.316;2022-07-29T03:15:35;17.50;99.90
21419;DHT22;10870;51.384;10.316;2022-07-29T03:17:50;17.50;99.90
21419;DHT22;10870;51.384;10.316;2022-07-29T03:20:08;17.20;99.90
21419;DHT22;10870;51.384;10.316;2022-07-29T03:22:26;17.40;99.90
21419;DHT22;10870;51.384;10.316;2022-07-29T03:24:39;17.40;99.90
21419;DHT22;10870;51.384;10.316;2022-07-29T03:27:10;17.60;99.90
21419;DHT22;10870;51.384;10.316;2022-07-29T03:29:22;17.30;1.00
21419;DHT22;10870;51.384;10.316;2022-07-29T03:31:24;17.40;1.00
21419;DHT22;10870;51.384;10.316;2022-07-29T03:33:36;17.40;1.00
21419;DHT22;10870;51.384;10.316;2022-07-29T03:35:46;17.30;99.90
21419;DHT22;10870;51.384;10.316;2022-07-29T03:37:58;17.40;1.00
21419;DHT22;10870;51.384;10.316;2022-07-29T03:40:08;17.40;1.00
21419;DHT22;10870;51.384;10.316;2022-07-29T03:42:19;17.40;1.00
21419;DHT22;10870;51.384;10.316;2022-07-29T03:44:33;17.40;1.00
21419;DHT22;10870;51.384;10.316;2022-07-29T03:46:53;17.20;1.00
21419;DHT22;10870;51.384;10.316;2022-07-29T03:49:05;17.40;1.00
21419;DHT22;10870;51.384;10.316;2022-07-29T03:51:14;17.40;1.00
21419;DHT22;10870;51.384;10.316;2022-07-29T03:53:22;17.40;1.00
21419;DHT22;10870;51.384;10.316;2022-07-29T03:55:40;17.30;1.00
21419;DHT22;10870;51.384;10.316;2022-07-29T03:57:51;17.30;1.00
21419;DHT22;10870;51.384;10.316;2022-07-29T04:00:07;17.40;1.00
21419;DHT22;10870;51.384;10.316;2022-07-29T04:02:11;17.30;1.00
21419;DHT22;10870;51.384;10.316;2022-07-29T04:04:23;17.30;42.80
21419;DHT22;10870;51.384;10.316;2022-07-29T04:06:28;17.20;69.80
21419;DHT22;10870;51.384;10.316;2022-07-29T04:08:34;17.20;99.90
21419;DHT22;10870;51.384;10.316;2022-07-29T04:10:46;17.20;99.90
21419;DHT22;10870;51.384;10.316;2022-07-29T04:13:03;17.20;99.90
21419;DHT22;10870;51.384;10.316;2022-07-29T04:15:10;17.20;99.90
21419;DHT22;10870;51.384;10.316;2022-07-29T04:17:29;17.20;99.90
21419;DHT22;10870;51.384;10.316;2022-07-29T04:20:04;17.20;99.90
21419;DHT22;10870;51.384;10.316;2022-07-29T04:22:37;17.20;1.00
21419;DHT22;10870;51.384;10.316;2022-07-29T04:24:40;17.30;99.90
21419;DHT22;10870;51.384;10.316;2022-07-29T04:26:48;17.20;99.90
21419;DHT22;10870;51.384;10.316;2022-07-29T04:28:53;17.30;99.90
21419;DHT22;10870;51.384;10.316;2022-07-29T04:30:54;17.20;72.70
21419;DHT22;10870;51.384;10.316;2022-07-29T04:33:01;17.20;99.90
21419;DHT22;10870;51.384;10.316;2022-07-29T04:35:03;17.20;99.90
21419;DHT22;10870;51.384;10.316;2022-07-29T04:37:10;17.20;99.90
21419;DHT22;10870;51.384;10.316;2022-07-29T04:39:13;17.20;99.90
21419;DHT22;10870;51.384;10.316;2022-07-29T04:41:25;17.20;99.90
21419;DHT22;10870;51.384;10.316;2022-07-29T04:43:28;17.20;99.90
21419;DHT22;10870;51.384;10.316;2022-07-29T04:45:29;17.20;99.90
21419;DHT22;10870;51.384;10.316;2022-07-29T04:47:30;17.20;99.90
21419;DHT22;10870;51.384;10.316;2022-07-29T04:49:34;17.30;99.90
21419;DHT22;10870;51.384;10.316;2022-07-29T04:51:35;17.20;1.00
21419;DHT22;10870;51.384;10.316;2022-07-29T04:53:36;17.20;1.00
21419;DHT22;10870;51.384;10.316;2022-07-29T04:55:38;17.20;1.00
21419;DHT22;10870;51.384;10.316;2022-07-29T04:57:42;17.10;1.00
21419;DHT22;10870;51.384;10.316;2022-07-29T04:59:45;17.20;1.00
21419;DHT22;10870;51.384;10.316;2022-07-29T05:01:49;17.10;1.00
21419;DHT22;10870;51.384;10.316;2022-07-29T05:03:51;17.10;1.00
21419;DHT22;10870;51.384;10.316;2022-07-29T05:05:52;17.10;1.00
21419;DHT22;10870;51.384;10.316;2022-07-29T05:07:55;17.10;1.00
21419;DHT22;10870;51.384;10.316;2022-07-29T05:09:57;17.10;1.00
21419;DHT22;10870;51.384;10.316;2022-07-29T05:11:58;17.20;1.00
21419;DHT22;10870;51.384;10.316;2022-07-29T05:14:03;17.20;1.00
21419;DHT22;10870;51.384;10.316;2022-07-29T05:16:04;17.20;1.00
21419;DHT22;10870;51.384;10.316;2022-07-29T05:18:13;17.00;1.00
21419;DHT22;10870;51.384;10.316;2022-07-29T05:20:20;17.30;1.00
21419;DHT22;10870;51.384;10.316;2022-07-29T05:22:27;17.20;1.00
21419;DHT22;10870;51.384;10.316;2022-07-29T05:24:40;17.30;1.00
21419;DHT22;10870;51.384;10.316;2022-07-29T05:26:52;17.30;1.00
21419;DHT22;10870;51.384;10.316;2022-07-29T05:28:58;17.30;1.00
21419;DHT22;10870;51.384;10.316;2022-07-29T05:31:09;17.30;1.00
21419;DHT22;10870;51.384;10.316;2022-07-29T05:33:21;17.30;1.00
21419;DHT22;10870;51.384;10.316;2022-07-29T05:35:24;17.40;1.00
21419;DHT22;10870;51.384;10.316;2022-07-29T05:37:28;17.60;1.00
21419;DHT22;10870;51.384;10.316;2022-07-29T05:39:37;17.30;1.00
21419;DHT22;10870;51.384;10.316;2022-07-29T05:41:51;17.30;1.00
21419;DHT22;10870;51.384;10.316;2022-07-29T05:43:54;17.30;1.00
21419;DHT22;10870;51.384;10.316;2022-07-29T05:46:05;17.30;1.00
21419;DHT22;10870;51.384;10.316;2022-07-29T05:48:13;17.30;1.00
21419;DHT22;10870;51.384;10.316;2022-07-29T05:50:23;17.30;99.90
21419;DHT22;10870;51.384;10.316;2022-07-29T05:52:27;17.50;99.90
21419;DHT22;10870;51.384;10.316;2022-07-29T05:54:31;17.40;99.90
21419;DHT22;10870;51.384;10.316;2022-07-29T05:56:43;17.60;99.90
21419;DHT22;10870;51.384;10.316;2022-07-29T05:58:55;17.40;1.00
21419;DHT22;10870;51.384;10.316;2022-07-29T06:01:09;17.50;99.90
21419;DHT22;10870;51.384;10.316;2022-07-29T06:03:12;17.60;99.90
21419;DHT22;10870;51.384;10.316;2022-07-29T06:05:27;17.70;99.90
21419;DHT22;10870;51.384;10.316;2022-07-29T06:07:45;17.80;99.90
21419;DHT22;10870;51.384;10.316;2022-07-29T06:09:48;17.90;86.20
21419;DHT22;10870;51.384;10.316;2022-07-29T06:11:49;18.00;1.00
21419;DHT22;10870;51.384;10.316;2022-07-29T06:13:52;18.00;1.00
21419;DHT22;10870;51.384;10.316;2022-07-29T06:15:56;18.10;1.00
21419;DHT22;10870;51.384;10.316;2022-07-29T06:18:09;18.20;99.90
21419;DHT22;10870;51.384;10.316;2022-07-29T06:20:21;18.30;99.90
21419;DHT22;10870;51.384;10.316;2022-07-29T06:22:46;18.30;99.90
21419;DHT22;10870;51.384;10.316;2022-07-29T06:24:51;18.40;99.90
21419;DHT22;10870;51.384;10.316;2022-07-29T06:26:52;18.40;86.80
21419;DHT22;10870;51.384;10.316;2022-07-29T06:28:55;18.40;34.40
21419;DHT22;10870;51.384;10.316;2022-07-29T06:30:56;18.50;74.60
21419;DHT22;10870;51.384;10.316;2022-07-29T06:32:57;18.50;1.00
21419;DHT22;10870;51.384;10.316;2022-07-29T06:35:01;18.60;1.00
21419;DHT22;10870;51.384;10.316;2022-07-29T06:37:12;18.70;1.00
21419;DHT22;10870;51.384;10.316;2022-07-29T06:39:13;18.80;1.00
21419;DHT22;10870;51.384;10.316;2022-07-29T06:41:14;18.90;1.00
21419;DHT22;10870;51.384;10.316;2022-07-29T06:43:21;19.00;1.00
21419;DHT22;10870;51.384;10.316;2022-07-29T06:45:28;19.10;99.90
21419;DHT22;10870;51.384;10.316;2022-07-29T06:47:29;19.10;99.90
21419;DHT22;10870;51.384;10.316;2022-07-29T06:49:58;19.10;99.90
21419;DHT22;10870;51.384;10.316;2022-07-29T06:51:59;19.00;99.90
21419;DHT22;10870;51.384;10.316;2022-07-29T06:54:00;19.10;99.90
21419;DHT22;10870;51.384;10.316;2022-07-29T06:56:06;19.10;99.90
21419;DHT22;10870;51.384;10.316;2022-07-29T06:58:11;19.20;99.90
21419;DHT22;10870;51.384;10.316;2022-07-29T07:00:16;19.40;99.90
21419;DHT22;10870;51.384;10.316;2022-07-29T07:02:17;19.20;99.90
21419;DHT22;10870;51.384;10.316;2022-07-29T07:04:26;19.20;99.90
21419;DHT22;10870;51.384;10.316;2022-07-29T07:06:36;19.20;99.90
21419;DHT22;10870;51.384;10.316;2022-07-29T07:08:38;19.30;99.90
21419;DHT22;10870;51.384;10.316;2022-07-29T07:10:41;19.30;99.90
21419;DHT22;10870;51.384;10.316;2022-07-29T07:12:42;19.30;99.90
21419;DHT22;10870;51.384;10.316;2022-07-29T07:14:46;19.30;99.90
21419;DHT22;10870;51.384;10.316;2022-07-29T07:16:56;19.50;99.90
21419;DHT22;10870;51.384;10.316;2022-07-29T07:19:01;19.40;99.90
21419;DHT22;10870;51.384;10.316;2022-07-29T07:21:01;19.50;99.90
21419;DHT22;10870;51.384;10.316;2022-07-29T07:23:05;19.50;99.90
21419;DHT22;10870;51.384;10.316;2022-07-29T07:25:06;19.60;99.90
21419;DHT22;10870;51.384;10.316;2022-07-29T07:27:10;19.70;99.90
21419;DHT22;10870;51.384;10.316;2022-07-29T07:29:12;19.80;99.90
21419;DHT22;10870;51.384;10.316;2022-07-29T07:31:18;19.80;99.90
21419;DHT22;10870;51.384;10.316;2022-07-29T07:33:19;19.90;99.90
21419;DHT22;10870;51.384;10.316;2022-07-29T07:35:20;19.90;99.90
21419;DHT22;10870;51.384;10.316;2022-07-29T07:37:21;19.90;62.50
21419;DHT22;10870;51.384;10.316;2022-07-29T07:39:25;19.90;2.90
21419;DHT22;10870;51.384;10.316;2022-07-29T07:41:26;20.00;92.00
21419;DHT22;10870;51.384;10.316;2022-07-29T07:43:30;20.00;20.70
21419;DHT22;10870;51.384;10.316;2022-07-29T07:45:33;20.00;22.00
21419;DHT22;10870;51.384;10.316;2022-07-29T07:47:35;20.10;1.00
21419;DHT22;10870;51.384;10.316;2022-07-29T07:49:40;20.20;1.00
21419;DHT22;10870;51.384;10.316;2022-07-29T07:51:45;20.20;1.00
21419;DHT22;10870;51.384;10.316;2022-07-29T07:53:51;20.30;1.00
21419;DHT22;10870;51.384;10.316;2022-07-29T07:55:57;20.30;1.00
21419;DHT22;10870;51.384;10.316;2022-07-29T07:57:58;20.30;1.00
21419;DHT22;10870;51.384;10.316;2022-07-29T08:00:02;20.40;1.00
21419;DHT22;10870;51.384;10.316;2022-07-29T08:02:06;20.70;1.00
21419;DHT22;10870;51.384;10.316;2022-07-29T08:04:08;20.40;1.00
21419;DHT22;10870;51.384;10.316;2022-07-29T08:06:11;20.50;1.00
21419;DHT22;10870;51.384;10.316;2022-07-29T08:08:13;20.50;1.00
21419;DHT22;10870;51.384;10.316;2022-07-29T08:10:16;21.00;1.00
21419;DHT22;10870;51.384;10.316;2022-07-29T08:12:36;20.70;1.00
21419;DHT22;10870;51.384;10.316;2022-07-29T08:14:37;20.80;1.00
21419;DHT22;10870;51.384;10.316;2022-07-29T08:16:38;20.40;1.00
21419;DHT22;10870;51.384;10.316;2022-07-29T08:18:39;21.20;1.00
21419;DHT22;10870;51.384;10.316;2022-07-29T08:20:40;21.10;1.00
21419;DHT22;10870;51.384;10.316;2022-07-29T08:22:41;21.30;1.00
21419;DHT22;10870;51.384;10.316;2022-07-29T08:24:42;21.10;1.00
21419;DHT22;10870;51.384;10.316;2022-07-29T08:26:52;21.50;1.00
21419;DHT22;10870;51.384;10.316;2022-07-29T08:28:53;21.60;1.00
21419;DHT22;10870;51.384;10.316;2022-07-29T08:30:54;21.70;1.00
21419;DHT22;10870;51.384;10.316;2022-07-29T08:32:55;21.80;99.90
21419;DHT22;10870;51.384;10.316;2022-07-29T08:35:04;21.80;99.90
21419;DHT22;10870;51.384;10.316;2022-07-29T08:37:05;21.80;99.90
21419;DHT22;10870;51.384;10.316;2022-07-29T08:39:08;21.80;99.90
21419;DHT22;10870;51.384;10.316;2022-07-29T08:41:12;21.90;99.90
21419;DHT22;10870;51.384;10.316;2022-07-29T08:43:13;22.10;99.90
21419;DHT22;10870;51.384;10.316;2022-07-29T08:45:20;21.80;48.00
21419;DHT22;10870;51.384;10.316;2022-07-29T08:47:28;21.90;44.20
21419;DHT22;10870;51.384;10.316;2022-07-29T08:49:30;22.00;26.90
21419;DHT22;10870;51.384;10.316;2022-07-29T08:51:33;22.00;16.50
21419;DHT22;10870;51.384;10.316;2022-07-29T08:53:36;22.10;1.00
21419;DHT22;10870;51.384;10.316;2022-07-29T08:55:48;22.10;1.00
21419;DHT22;10870;51.384;10.316;2022-07-29T08:57:52;22.10;1.00
21419;DHT22;10870;51.384;10.316;2022-07-29T08:59:55;22.10;1.00
21419;DHT22;10870;51.384;10.316;2022-07-29T09:01:58;22.20;1.00
21419;DHT22;10870;51.384;10.316;2022-07-29T09:04:01;22.20;1.00
21419;DHT22;10870;51.384;10.316;2022-07-29T09:06:03;22.20;1.00
21419;DHT22;10870;51.384;10.316;2022-07-29T09:08:04;22.20;1.00
21419;DHT22;10870;51.384;10.316;2022-07-29T09:10:10;22.20;1.00
21419;DHT22;10870;51.384;10.316;2022-07-29T09:12:11;22.20;1.00
21419;DHT22;10870;51.384;10.316;2022-07-29T09:14:15;22.20;1.00
21419;DHT22;10870;51.384;10.316;2022-07-29T09:16:18;22.20;1.00
21419;DHT22;10870;51.384;10.316;2022-07-29T09:18:42;22.20;1.00
21419;DHT22;10870;51.384;10.316;2022-07-29T09:20:44;22.20;1.00
21419;DHT22;10870;51.384;10.316;2022-07-29T09:23:10;22.20;1.00
21419;DHT22;10870;51.384;10.316;2022-07-29T09:25:11;22.20;1.00
21419;DHT22;10870;51.384;10.316;2022-07-29T09:29:22;22.20;1.00
21419;DHT22;10870;51.384;10.316;2022-07-29T09:31:33;22.20;1.00
21419;DHT22;10870;51.384;10.316;2022-07-29T09:33:37;22.20;1.00
21419;DHT22;10870;51.384;10.316;2022-07-29T09:35:42;22.20;1.00
21419;DHT22;10870;51.384;10.316;2022-07-29T09:37:43;22.30;1.00
21419;DHT22;10870;51.384;10.316;2022-07-29T09:39:45;22.30;1.00
21419;DHT22;10870;51.384;10.316;2022-07-29T09:41:56;22.30;1.00
21419;DHT22;10870;51.384;10.316;2022-07-29T09:43:58;22.40;1.00
21419;DHT22;10870;51.384;10.316;2022-07-29T09:46:14;22.50;34.20
21419;DHT22;10870;51.384;10.316;2022-07-29T09:48:18;22.60;99.90
21419;DHT22;10870;51.384;10.316;2022-07-29T09:50:22;22.70;99.90
21419;DHT22;10870;51.384;10.316;2022-07-29T09:52:29;22.80;99.90
21419;DHT22;10870;51.384;10.316;2022-07-29T09:54:42;22.80;99.90
21419;DHT22;10870;51.384;10.316;2022-07-29T09:56:43;23.10;99.90
21419;DHT22;10870;51.384;10.316;2022-07-29T09:58:44;23.10;99.90
21419;DHT22;10870;51.384;10.316;2022-07-29T10:00:47;23.20;99.90
21419;DHT22;10870;51.384;10.316;2022-07-29T10:02:51;23.20;99.90
21419;DHT22;10870;51.384;10.316;2022-07-29T10:04:58;23.20;99.90
21419;DHT22;10870;51.384;10.316;2022-07-29T10:07:09;23.50;99.90
21419;DHT22;10870;51.384;10.316;2022-07-29T10:09:16;23.80;99.90
21419;DHT22;10870;51.384;10.316;2022-07-29T10:11:19;23.70;99.90
21419;DHT22;10870;51.384;10.316;2022-07-29T11:25:17;25.50;99.90
21419;DHT22;10870;51.384;10.316;2022-07-29T11:27:19;25.40;99.90
21419;DHT22;10870;51.384;10.316;2022-07-29T11:29:24;25.40;99.90
21419;DHT22;10870;51.384;10.316;2022-07-29T11:31:37;25.40;99.90
21419;DHT22;10870;51.384;10.316;2022-07-29T11:33:40;25.40;99.90
21419;DHT22;10870;51.384;10.316;2022-07-29T11:35:46;25.40;99.90
21419;DHT22;10870;51.384;10.316;2022-07-29T11:38:24;25.40;99.90
21419;DHT22;10870;51.384;10.316;2022-07-29T11:40:28;25.50;99.90
21419;DHT22;10870;51.384;10.316;2022-07-29T12:03:22;25.80;99.90
21419;DHT22;10870;51.384;10.316;2022-07-29T12:05:37;25.80;99.90
21419;DHT22;10870;51.384;10.316;2022-07-29T12:07:50;25.80;99.90
21419;DHT22;10870;51.384;10.316;2022-07-29T12:09:52;25.80;99.90
21419;DHT22;10870;51.384;10.316;2022-07-29T12:11:56;25.80;99.90
21419;DHT22;10870;51.384;10.316;2022-07-29T12:13:57;25.70;99.90
21419;DHT22;10870;51.384;10.316;2022-07-29T12:15:59;25.80;99.90
21419;DHT22;10870;51.384;10.316;2022-07-29T12:18:13;25.80;99.90
21419;DHT22;10870;51.384;10.316;2022-07-29T12:20:28;25.90;99.90
21419;DHT22;10870;51.384;10.316;2022-07-29T12:22:35;25.80;99.90
21419;DHT22;10870;51.384;10.316;2022-07-29T12:24:46;25.80;99.90
21419;DHT22;10870;51.384;10.316;2022-07-29T12:26:52;25.80;99.90
21419;DHT22;10870;51.384;10.316;2022-07-29T12:28:56;25.80;99.90
21419;DHT22;10870;51.384;10.316;2022-07-29T12:30:57;25.70;99.90
21419;DHT22;10870;51.384;10.316;2022-07-29T12:32:58;25.70;99.90
21419;DHT22;10870;51.384;10.316;2022-07-29T12:35:02;25.70;99.90
21419;DHT22;10870;51.384;10.316;2022-07-29T12:37:08;25.80;99.90
21419;DHT22;10870;51.384;10.316;2022-07-29T12:39:10;25.80;99.90
21419;DHT22;10870;51.384;10.316;2022-07-29T12:41:14;25.80;99.90
21419;DHT22;10870;51.384;10.316;2022-07-29T12:43:16;25.90;99.90
21419;DHT22;10870;51.384;10.316;2022-07-29T12:45:17;25.90;99.90
21419;DHT22;10870;51.384;10.316;2022-07-29T12:47:28;26.00;99.90
21419;DHT22;10870;51.384;10.316;2022-07-29T12:49:31;26.00;99.90
21419;DHT22;10870;51.384;10.316;2022-07-29T12:51:37;26.20;29.40
21419;DHT22;10870;51.384;10.316;2022-07-29T12:53:39;26.40;4.50
21419;DHT22;10870;51.384;10.316;2022-07-29T12:57:44;26.60;1.00
21419;DHT22;10870;51.384;10.316;2022-07-29T13:02:25;26.80;1.00
21419;DHT22;10870;51.384;10.316;2022-07-29T13:04:29;27.10;1.00
21419;DHT22;10870;51.384;10.316;2022-07-29T13:08:59;27.00;1.00
21419;DHT22;10870;51.384;10.316;2022-07-29T13:10:59;27.00;1.00
21419;DHT22;10870;51.384;10.316;2022-07-29T13:13:08;27.00;1.00
21419;DHT22;10870;51.384;10.316;2022-07-29T13:15:15;27.10;1.00
21419;DHT22;10870;51.384;10.316;2022-07-29T13:17:20;27.10;1.00
21419;DHT22;10870;51.384;10.316;2022-07-29T13:19:31;27.20;1.00
21419;DHT22;10870;51.384;10.316;2022-07-29T13:21:32;27.20;37.60
21419;DHT22;10870;51.384;10.316;2022-07-29T13:58:16;28.60;99.90
21419;DHT22;10870;51.384;10.316;2022-07-29T14:00:17;28.60;1.00
21419;DHT22;10870;51.384;10.316;2022-07-29T14:02:21;28.80;1.00
21419;DHT22;10870;51.384;10.316;2022-07-29T14:04:25;28.90;1.00
21419;DHT22;10870;51.384;10.316;2022-07-29T14:06:26;29.10;1.00
21419;DHT22;10870;51.384;10.316;2022-07-29T14:08:27;29.20;1.00
21419;DHT22;10870;51.384;10.316;2022-07-29T14:10:27;29.20;1.00
21419;DHT22;10870;51.384;10.316;2022-07-29T14:12:30;29.20;1.00
21419;DHT22;10870;51.384;10.316;2022-07-29T14:14:36;29.10;1.00
21419;DHT22;10870;51.384;10.316;2022-07-29T14:16:38;29.10;1.00
21419;DHT22;10870;51.384;10.316;2022-07-29T14:18:46;29.00;1.00
21419;DHT22;10870;51.384;10.316;2022-07-29T14:20:52;29.00;1.00
21419;DHT22;10870;51.384;10.316;2022-07-29T14:22:55;28.80;1.00
21419;DHT22;10870;51.384;10.316;2022-07-29T14:25:01;28.70;1.00
21419;DHT22;10870;51.384;10.316;2022-07-29T14:27:07;28.60;1.00
21419;DHT22;10870;51.384;10.316;2022-07-29T14:29:08;28.40;1.00
21419;DHT22;10870;51.384;10.316;2022-07-29T14:31:09;28.40;1.00
21419;DHT22;10870;51.384;10.316;2022-07-29T14:33:10;28.30;1.00
21419;DHT22;10870;51.384;10.316;2022-07-29T14:35:14;28.30;1.00
21419;DHT22;10870;51.384;10.316;2022-07-29T14:37:15;28.30;1.00
21419;DHT22;10870;51.384;10.316;2022-07-29T14:39:16;28.30;1.00
21419;DHT22;10870;51.384;10.316;2022-07-29T14:41:17;28.20;1.00
21419;DHT22;10870;51.384;10.316;2022-07-29T14:43:20;28.20;1.00
21419;DHT22;10870;51.384;10.316;2022-07-29T14:45:21;28.20;1.00
21419;DHT22;10870;51.384;10.316;2022-07-29T14:47:25;28.10;1.00
21419;DHT22;10870;51.384;10.316;2022-07-29T14:49:29;28.10;1.00
21419;DHT22;10870;51.384;10.316;2022-07-29T14:51:35;28.00;1.00
21419;DHT22;10870;51.384;10.316;2022-07-29T14:53:42;27.90;1.00
21419;DHT22;10870;51.384;10.316;2022-07-29T14:55:43;27.80;1.00
21419;DHT22;10870;51.384;10.316;2022-07-29T14:57:58;27.70;1.00
21419;DHT22;10870;51.384;10.316;2022-07-29T15:00:00;27.70;1.00
21419;DHT22;10870;51.384;10.316;2022-07-29T15:02:10;27.60;1.00
21419;DHT22;10870;51.384;10.316;2022-07-29T15:04:16;27.60;1.00
21419;DHT22;10870;51.384;10.316;2022-07-29T15:06:17;27.50;1.00
21419;DHT22;10870;51.384;10.316;2022-07-29T15:08:27;27.50;1.00
21419;DHT22;10870;51.384;10.316;2022-07-29T15:10:30;27.40;1.00
21419;DHT22;10870;51.384;10.316;2022-07-29T15:12:34;27.40;1.00
21419;DHT22;10870;51.384;10.316;2022-07-29T15:14:37;27.30;1.00
21419;DHT22;10870;51.384;10.316;2022-07-29T15:16:39;27.40;1.00
21419;DHT22;10870;51.384;10.316;2022-07-29T15:18:43;27.30;1.00
21419;DHT22;10870;51.384;10.316;2022-07-29T15:20:43;27.40;1.00
21419;DHT22;10870;51.384;10.316;2022-07-29T15:22:50;27.40;1.00
21419;DHT22;10870;51.384;10.316;2022-07-29T15:24:56;27.40;1.00
21419;DHT22;10870;51.384;10.316;2022-07-29T15:27:00;27.30;1.00
21419;DHT22;10870;51.384;10.316;2022-07-29T15:29:01;27.40;1.00
21419;DHT22;10870;51.384;10.316;2022-07-29T15:31:05;27.40;1.00
21419;DHT22;10870;51.384;10.316;2022-07-29T15:33:07;27.40;1.00
21419;DHT22;10870;51.384;10.316;2022-07-29T15:37:32;27.40;1.00
21419;DHT22;10870;51.384;10.316;2022-07-29T15:39:35;27.40;1.00
21419;DHT22;10870;51.384;10.316;2022-07-29T15:41:37;27.40;1.00
21419;DHT22;10870;51.384;10.316;2022-07-29T15:43:44;27.60;1.00
21419;DHT22;10870;51.384;10.316;2022-07-29T15:45:47;27.20;1.00
21419;DHT22;10870;51.384;10.316;2022-07-29T15:48:08;27.50;1.00
21419;DHT22;10870;51.384;10.316;2022-07-29T15:50:16;27.50;1.00
21419;DHT22;10870;51.384;10.316;2022-07-29T15:52:20;27.40;1.00
21419;DHT22;10870;51.384;10.316;2022-07-29T15:54:23;27.60;1.00
21419;DHT22;10870;51.384;10.316;2022-07-29T15:56:24;27.70;1.00
21419;DHT22;10870;51.384;10.316;2022-07-29T15:58:33;28.00;1.00
21419;DHT22;10870;51.384;10.316;2022-07-29T16:00:41;27.80;1.00
21419;DHT22;10870;51.384;10.316;2022-07-29T16:02:45;28.00;1.00
21419;DHT22;10870;51.384;10.316;2022-07-29T16:04:51;27.90;1.00
21419;DHT22;10870;51.384;10.316;2022-07-29T16:06:53;28.00;1.00
21419;DHT22;10870;51.384;10.316;2022-07-29T16:08:56;28.20;1.00